Time;durP1;ratioP1;P1;durP2;ratioP2;P2;SDS_P1;SDS_P2;PMS_P1;PMS_P2;Temp;Humidity;BMP_temperature;BMP_pressure;BME280_temperature;BME280_humidity;BME280_pressure;Samples;Min_cycle;Max_cycle;Signal;HPM_P1;HPM_P2
2022/06/09 00:00:59;;;;;;;19.55;9.55;;;;;;;13.50;100.00;100655.91;4876015;29;20042;-87
2022/06/09 00:03:31;;;;;;;11.25;8.35;;;;;;;13.48;100.00;100643.69;4863860;29;20030;-85
2022/06/09 00:05:56;;;;;;;12.45;7.95;;;;;;;13.59;100.00;100665.38;4875667;29;20029;-86
2022/06/09 00:08:23;;;;;;;13.07;9.07;;;;;;;13.62;100.00;100659.53;4843819;29;20045;-86
2022/06/09 00:10:54;;;;;;;12.90;9.20;;;;;;;13.56;100.00;100644.19;4873526;29;20025;-86
2022/06/09 00:13:20;;;;;;;11.38;8.27;;;;;;;13.63;100.00;100652.25;4876874;29;20025;-87
2022/06/09 00:15:45;;;;;;;12.23;7.70;;;;;;;13.66;100.00;100654.50;4845958;29;20037;-87
2022/06/09 00:18:10;;;;;;;9.65;7.63;;;;;;;13.73;100.00;100665.25;4843355;29;20094;-85
2022/06/09 00:20:36;;;;;;;14.68;8.45;;;;;;;13.73;100.00;100670.66;4876154;29;20033;-86
2022/06/09 00:23:01;;;;;;;12.13;7.30;;;;;;;13.74;100.00;100664.19;4878165;29;20062;-86
2022/06/09 00:25:26;;;;;;;9.65;7.70;;;;;;;13.78;100.00;100666.25;4879635;29;20029;-86
2022/06/09 00:27:52;;;;;;;11.13;7.30;;;;;;;13.74;100.00;100653.38;4893323;29;20044;-87
2022/06/09 00:30:19;;;;;;;15.27;6.80;;;;;;;13.85;100.00;100674.31;4875681;29;20029;-85
2022/06/09 00:32:45;;;;;;;9.75;6.90;;;;;;;13.90;100.00;100669.03;4867619;29;20037;-86
2022/06/09 00:35:11;;;;;;;11.50;7.43;;;;;;;13.93;100.00;100674.00;4858990;29;20096;-88
2022/06/09 00:37:39;;;;;;;10.50;8.35;;;;;;;13.94;100.00;100667.56;4875407;29;20038;-86
2022/06/09 00:40:08;;;;;;;13.15;8.38;;;;;;;13.99;100.00;100675.81;4859996;29;20053;-87
2022/06/09 00:42:34;;;;;;;12.93;7.40;;;;;;;14.03;100.00;100681.59;4896529;29;20029;-84
2022/06/09 00:45:23;;;;;;;11.23;7.30;;;;;;;14.06;100.00;100679.25;4881072;29;20029;-85
2022/06/09 00:47:50;;;;;;;14.75;8.43;;;;;;;14.04;100.00;100673.25;4859367;29;20041;-85
2022/06/09 00:50:19;;;;;;;11.23;6.97;;;;;;;14.03;100.00;100663.47;4875221;29;20033;-85
2022/06/09 00:52:52;;;;;;;9.77;6.53;;;;;;;14.06;100.00;100675.72;4858843;29;20025;-85
2022/06/09 00:55:21;;;;;;;11.30;6.68;;;;;;;14.08;100.00;100674.47;4876406;29;20032;-84
2022/06/09 00:57:53;;;;;;;10.98;6.45;;;;;;;14.01;100.00;100652.06;4874711;29;20053;-85
2022/06/09 01:00:23;;;;;;;11.18;6.78;;;;;;;14.10;100.00;100672.38;4869859;29;20035;-85
2022/06/09 01:02:53;;;;;;;11.85;7.15;;;;;;;13.98;100.00;100654.41;4876079;29;20045;-85
2022/06/09 01:05:21;;;;;;;11.63;7.50;;;;;;;14.10;100.00;100676.91;4875055;29;20054;-86
2022/06/09 01:07:49;;;;;;;8.38;6.35;;;;;;;14.02;100.00;100672.66;4875696;29;20029;-86
2022/06/09 01:10:15;;;;;;;9.52;6.22;;;;;;;13.85;100.00;100647.25;4879568;29;20017;-85
2022/06/09 01:12:43;;;;;;;11.70;6.50;;;;;;;14.05;100.00;100674.91;4860537;29;20052;-85
2022/06/09 01:15:21;;;;;;;7.28;5.88;;;;;;;14.03;100.00;100670.75;4861660;29;20026;-85
2022/06/09 01:17:56;;;;;;;9.18;6.07;;;;;;;13.98;100.00;100668.75;4883863;29;20040;-85
2022/06/09 01:20:31;;;;;;;10.32;6.63;;;;;;;14.04;100.00;100684.09;4869196;29;20471;-86
2022/06/09 01:23:18;;;;;;;7.70;5.32;;;;;;;14.06;100.00;100673.84;4858463;29;20029;-85
2022/06/09 01:26:22;;;;;;;8.52;5.72;;;;;;;14.06;100.00;100673.84;4875079;29;20036;-86
2022/06/09 01:28:50;;;;;;;12.43;6.38;;;;;;;14.04;100.00;100672.44;4875011;29;20040;-86
2022/06/09 01:31:59;;;;;;;10.93;6.18;;;;;;;14.02;100.00;100669.13;4875790;29;20085;-84
2022/06/09 01:34:52;;;;;;;7.85;5.60;;;;;;;14.02;100.00;100669.94;4819554;29;20045;-86
2022/06/09 01:37:27;;;;;;;9.30;6.10;;;;;;;14.03;100.00;100674.28;4853777;29;20034;-84
2022/06/09 01:40:04;;;;;;;10.52;7.07;;;;;;;13.92;100.00;100653.41;4877404;29;20029;-85
2022/06/09 01:42:35;;;;;;;9.93;6.05;;;;;;;13.98;100.00;100662.50;4879201;29;20033;-86
2022/06/09 01:45:15;;;;;;;8.45;6.15;;;;;;;14.00;100.00;100674.75;4875717;29;20025;-85
2022/06/09 01:48:05;;;;;;;8.57;6.00;;;;;;;14.04;100.00;100675.97;4874854;29;20113;-85
2022/06/09 01:50:53;;;;;;;13.95;6.43;;;;;;;14.05;100.00;100672.19;4860192;29;20021;-86
2022/06/09 01:53:33;;;;;;;8.43;6.65;;;;;;;14.01;100.00;100664.78;4873599;29;20025;-85
2022/06/09 01:56:05;;;;;;;8.45;6.10;;;;;;;13.92;100.00;100649.88;4876214;29;20056;-85
2022/06/09 01:58:38;;;;;;;14.48;6.85;;;;;;;14.00;100.00;100668.50;4893484;29;20063;-85
2022/06/09 02:01:05;;;;;;;10.32;5.80;;;;;;;14.05;100.00;100679.50;4883843;29;20060;-86
2022/06/09 02:03:39;;;;;;;9.35;5.70;;;;;;;14.09;100.00;100678.00;4874220;29;20033;-85
2022/06/09 02:06:06;;;;;;;10.23;5.78;;;;;;;14.09;100.00;100678.00;4875125;29;20056;-85
2022/06/09 02:08:35;;;;;;;11.35;5.50;;;;;;;14.10;100.00;100674.22;4874247;29;20061;-84
2022/06/09 02:11:07;;;;;;;11.90;5.18;;;;;;;14.13;100.00;100678.34;4885695;29;20029;-85
2022/06/09 02:13:39;;;;;;;7.65;5.40;;;;;;;14.12;100.00;100665.91;4886589;29;20029;-86
2022/06/09 02:16:08;;;;;;;10.48;5.97;;;;;;;14.17;100.00;100682.25;4858837;29;20472;-85
2022/06/09 02:18:40;;;;;;;10.07;5.80;;;;;;;14.14;100.00;100672.75;4859013;29;20445;-85
2022/06/09 02:21:13;;;;;;;10.40;6.10;;;;;;;14.19;100.00;100681.00;4875675;29;20030;-85
2022/06/09 02:23:39;;;;;;;10.20;5.30;;;;;;;14.17;100.00;100687.66;4859162;29;20368;-85
2022/06/09 02:26:05;;;;;;;6.60;4.80;;;;;;;14.18;100.00;100683.94;4859199;29;20025;-86
2022/06/09 02:28:31;;;;;;;7.93;5.28;;;;;;;14.18;100.00;100676.63;4849178;29;20452;-85
2022/06/09 02:30:57;;;;;;;7.03;5.03;;;;;;;14.18;100.00;100681.22;4859224;29;20072;-85
2022/06/09 02:33:22;;;;;;;10.90;5.13;;;;;;;14.13;100.00;100681.06;4858756;29;20360;-85
2022/06/09 02:35:49;;;;;;;8.73;5.35;;;;;;;14.10;100.00;100675.06;4876224;29;20134;-86
2022/06/09 02:38:15;;;;;;;8.10;5.05;;;;;;;14.03;100.00;100671.59;4890504;29;20124;-85
2022/06/09 02:40:41;;;;;;;8.38;5.40;;;;;;;14.09;100.00;100686.09;4860319;29;20057;-85
2022/06/09 02:43:08;;;;;;;8.32;5.53;;;;;;;14.05;100.00;100685.72;4890368;29;20321;-85
2022/06/09 02:45:34;;;;;;;8.55;5.80;;;;;;;14.01;100.00;100689.13;4876545;29;20040;-85
2022/06/09 02:48:01;;;;;;;8.35;6.20;;;;;;;13.95;100.00;100680.00;4876028;29;20032;-85
2022/06/09 02:50:27;;;;;;;10.63;7.20;;;;;;;13.95;100.00;100685.44;4857903;29;20025;-85
2022/06/09 02:52:52;;;;;;;10.15;5.88;;;;;;;13.99;100.00;100685.81;4867672;29;20106;-85
2022/06/09 02:55:17;;;;;;;11.23;5.68;;;;;;;13.97;100.00;100691.44;4855967;29;20504;-85
2022/06/09 02:57:43;;;;;;;9.35;5.47;;;;;;;13.87;100.00;100672.19;4874922;29;20033;-85
2022/06/09 03:00:14;;;;;;;14.07;5.90;;;;;;;13.79;100.00;100696.81;4874863;29;20025;-85
2022/06/09 03:02:40;;;;;;;8.35;5.38;;;;;;;13.72;100.00;100691.47;4889631;29;20025;-84
2022/06/09 03:05:06;;;;;;;8.48;6.32;;;;;;;13.66;100.00;100675.31;4870930;29;20093;-83
2022/06/09 03:07:31;;;;;;;14.13;8.00;;;;;;;14.10;100.00;100695.88;4888479;29;20472;-84
2022/06/09 03:09:56;;;;;;;10.98;8.02;;;;;;;14.07;100.00;100699.88;4859317;29;20044;-87
2022/06/09 03:12:22;;;;;;;15.75;9.75;;;;;;;14.06;100.00;100687.38;4875120;29;20072;-87
2022/06/09 03:14:47;;;;;;;13.32;9.45;;;;;;;14.47;100.00;100706.69;4871664;29;20089;-84
2022/06/09 03:17:13;;;;;;;10.13;9.07;;;;;;;14.89;100.00;100707.63;4879016;29;20073;-86
2022/06/09 03:19:39;;;;;;;16.60;9.75;;;;;;;15.18;100.00;100692.41;4880093;29;20040;-86
2022/06/09 03:22:04;;;;;;;20.52;10.93;;;;;;;15.07;100.00;100697.81;4879597;29;20033;-86
2022/06/09 03:24:30;;;;;;;15.20;10.85;;;;;;;15.08;100.00;100696.72;4876602;29;20048;-85
2022/06/09 03:26:56;;;;;;;14.82;10.50;;;;;;;15.09;100.00;100720.88;4860204;29;20033;-85
2022/06/09 03:29:22;;;;;;;18.35;11.00;;;;;;;14.86;100.00;100721.63;4843776;29;20029;-88
2022/06/09 03:31:48;;;;;;;16.17;11.57;;;;;;;14.92;100.00;100718.00;4877777;29;20037;-86
2022/06/09 03:34:14;;;;;;;17.75;12.40;;;;;;;14.91;100.00;100716.34;4867403;29;20037;-86
2022/06/09 03:36:40;;;;;;;17.15;12.77;;;;;;;14.95;100.00;100739.22;4862319;29;20041;-86
2022/06/09 03:39:06;;;;;;;20.77;13.70;;;;;;;14.89;100.00;100723.03;4862511;29;20033;-87
2022/06/09 03:41:31;;;;;;;22.35;15.57;;;;;;;14.93;100.00;100735.06;4884916;29;20149;-85
2022/06/09 03:43:56;;;;;;;23.15;14.52;;;;;;;14.90;100.00;100733.69;4872408;29;20033;-87
2022/06/09 03:46:22;;;;;;;22.33;15.60;;;;;;;14.79;100.00;100718.19;4864543;29;20088;-86
2022/06/09 03:48:47;;;;;;;24.02;16.02;;;;;;;14.89;100.00;100744.72;4885630;29;20040;-85
2022/06/09 03:51:13;;;;;;;23.63;16.70;;;;;;;14.65;100.00;100743.78;4866424;29;20041;-86
2022/06/09 03:53:40;;;;;;;24.50;16.48;;;;;;;14.46;100.00;100719.38;4879250;29;20053;-86
2022/06/09 03:56:11;;;;;;;24.33;16.05;;;;;;;14.79;100.00;100729.00;4879977;29;20081;-86
2022/06/09 03:58:37;;;;;;;27.38;16.95;;;;;;;14.92;100.00;100742.38;4895352;29;20275;-85
2022/06/09 04:01:02;;;;;;;26.13;16.13;;;;;;;14.94;100.00;100743.00;4870764;29;20029;-86
2022/06/09 04:03:29;;;;;;;23.33;16.08;;;;;;;14.74;100.00;100715.34;4899910;29;20025;-86
2022/06/09 04:05:56;;;;;;;25.05;16.20;;;;;;;14.86;100.00;100740.59;4871093;29;20121;-86
2022/06/09 04:08:21;;;;;;;26.20;15.63;;;;;;;14.86;100.00;100737.88;4897536;29;20029;-84
2022/06/09 04:10:48;;;;;;;21.23;15.20;;;;;;;14.99;100.00;100747.72;4866526;29;20109;-85
2022/06/09 04:13:15;;;;;;;20.45;15.02;;;;;;;14.94;100.00;100737.56;4856278;29;20030;-86
2022/06/09 04:15:41;;;;;;;21.70;15.23;;;;;;;14.59;100.00;100691.34;4885290;29;20033;-84
2022/06/09 04:18:06;;;;;;;22.02;15.13;;;;;;;14.96;100.00;100759.81;4859890;29;20039;-88
2022/06/09 04:20:32;;;;;;;21.40;15.40;;;;;;;14.13;100.00;100630.47;4875271;29;20033;-87
2022/06/09 04:22:58;;;;;;;19.73;14.60;;;;;;;15.03;100.00;100757.88;4868609;29;20037;-86
2022/06/09 04:25:23;;;;;;;17.30;14.15;;;;;;;14.76;100.00;100675.28;4867520;29;20025;-84
2022/06/09 04:27:49;;;;;;;20.00;14.25;;;;;;;14.69;100.00;100647.47;4891211;29;20037;-89
2022/06/09 04:30:15;;;;;;;18.77;13.88;;;;;;;15.08;100.00;100688.59;4863858;29;20058;-81
2022/06/09 04:32:41;;;;;;;21.50;13.73;;;;;;;15.68;100.00;100707.47;4863010;29;20026;-81
2022/06/09 04:35:07;;;;;;;20.17;13.23;;;;;;;16.69;100.00;100735.19;4862842;29;20035;-85
2022/06/09 04:40:16;;;;;;;16.05;12.43;;;;;;;17.18;100.00;100680.38;4871734;29;20083;-83
2022/06/09 04:42:42;;;;;;;15.70;11.18;;;;;;;17.04;100.00;100690.75;4866388;29;20033;-84
2022/06/09 04:45:08;;;;;;;13.07;10.48;;;;;;;17.56;100.00;100717.75;4870108;29;20089;-86
2022/06/09 04:47:34;;;;;;;13.80;10.90;;;;;;;17.83;100.00;100775.91;4894142;29;20033;-87
2022/06/09 04:50:03;;;;;;;18.45;10.82;;;;;;;17.11;100.00;100686.81;4886079;29;20036;-86
2022/06/09 04:52:28;;;;;;;13.93;10.20;;;;;;;17.12;100.00;100725.72;4891815;29;20085;-87
2022/06/09 04:54:54;;;;;;;14.68;9.90;;;;;;;16.79;100.00;100664.78;4873675;29;20008;-88
2022/06/09 04:57:19;;;;;;;16.33;10.20;;;;;;;16.73;100.00;100652.13;4877233;29;20037;-89
2022/06/09 04:59:45;;;;;;;12.70;8.80;;;;;;;17.32;100.00;100687.19;4881088;29;20026;-89
2022/06/09 05:04:42;;;;;;;12.43;8.23;;;;;;;17.60;100.00;100643.53;4882889;29;20041;-87
2022/06/09 05:07:08;;;;;;;10.85;7.90;;;;;;;18.01;100.00;100716.81;5223590;24;20081;-89
2022/06/09 05:09:33;;;;;;;14.13;8.30;;;;;;;18.28;100.00;100780.41;4849294;29;20030;-87
2022/06/09 05:11:59;;;;;;;11.93;8.02;;;;;;;17.42;100.00;100662.00;4833114;29;20049;-90
2022/06/09 05:14:24;;;;;;;11.25;7.75;;;;;;;18.02;100.00;100784.66;4830848;29;20019;-88
2022/06/09 05:16:50;;;;;;;11.18;7.68;;;;;;;17.30;100.00;100694.75;4830241;29;20042;-88
2022/06/09 05:19:16;;;;;;;12.70;7.43;;;;;;;17.54;100.00;100744.38;4833399;29;20053;-89
2022/06/09 05:21:41;;;;;;;14.77;7.22;;;;;;;17.11;100.00;100675.94;4833296;29;20038;-89
2022/06/09 05:24:07;;;;;;;12.27;7.78;;;;;;;17.90;100.00;100772.19;4832819;29;20018;-89
2022/06/09 05:26:32;;;;;;;14.60;7.88;;;;;;;17.26;100.00;100705.28;4816254;29;20116;-90
2022/06/09 05:28:58;;;;;;;11.50;7.80;;;;;;;16.93;100.00;100653.59;4829303;29;20030;-90
2022/06/09 05:31:24;;;;;;;17.85;8.80;;;;;;;17.01;100.00;100683.09;4833155;29;20027;-90
2022/06/09 05:33:50;;;;;;;15.13;9.40;;;;;;;16.56;100.00;100673.00;4848870;29;20034;-90
2022/06/09 05:36:16;;;;;;;20.75;8.18;;;;;;;17.50;100.00;100773.16;4849502;29;20022;-89
2022/06/09 05:46:55;;;;;;;14.73;8.20;;;;;;;17.58;100.00;100699.25;4850043;29;20056;-89
2022/06/09 05:49:21;;;;;;;16.52;8.10;;;;;;;18.17;100.00;100705.06;4849967;29;20019;-89
2022/06/09 05:51:49;;;;;;;19.73;7.68;;;;;;;18.96;100.00;100791.09;4833957;29;20035;-88
2022/06/09 05:54:15;;;;;;;13.55;6.57;;;;;;;18.47;100.00;100712.81;4819532;29;20042;-90
2022/06/09 05:56:42;;;;;;;13.60;6.40;;;;;;;18.21;100.00;100689.88;4819361;29;20110;-88
2022/06/09 05:59:08;;;;;;;10.93;5.82;;;;;;;18.36;100.00;100710.22;4829658;29;20019;-89
2022/06/09 06:01:36;;;;;;;15.40;5.72;;;;;;;18.34;100.00;100701.47;4801144;29;20086;-89
2022/06/09 06:04:08;;;;;;;10.43;5.57;;;;;;;19.03;100.00;100802.63;4831800;29;20015;-89
2022/06/09 06:06:34;;;;;;;9.93;5.15;;;;;;;18.34;100.00;100706.91;4830570;29;20015;-85
2022/06/09 06:09:02;;;;;;;9.77;4.50;;;;;;;18.17;100.00;100677.00;4830824;29;20072;-89
2022/06/09 06:11:27;;;;;;;6.32;4.20;;;;;;;18.44;100.00;100685.25;4831680;29;20015;-89
2022/06/09 06:13:54;;;;;;;10.27;5.05;;;;;;;18.86;100.00;100731.00;4830656;29;20039;-89
2022/06/09 06:16:21;;;;;;;8.80;4.32;;;;;;;19.36;100.00;100815.25;4830592;29;20019;-89
2022/06/09 06:18:48;;;;;;;7.80;4.20;;;;;;;18.92;100.00;100722.63;4830999;29;20031;-89
2022/06/09 06:21:15;;;;;;;5.88;4.35;;;;;;;18.51;100.00;100704.97;4830505;29;20106;-89
2022/06/09 06:23:41;;;;;;;9.20;4.05;;;;;;;18.47;100.00;100715.53;4830519;29;20027;-89
2022/06/09 06:26:07;;;;;;;6.13;3.55;;;;;;;18.61;100.00;100698.78;4815707;29;20030;-89
2022/06/09 06:28:33;;;;;;;6.40;2.95;;;;;;;18.77;100.00;100692.47;4830913;29;20023;-90
2022/06/09 06:38:44;;;;;;;7.93;3.22;;;;;;;19.11;100.00;100682.19;5345409;24;20050;-88
2022/06/09 06:41:12;;;;;;;6.55;3.00;;;;;;;18.70;100.00;100708.97;4832739;29;20094;-88
2022/06/09 06:43:38;;;;;;;8.70;3.22;;;;;;;19.19;100.00;100738.16;4838390;29;20123;-88
2022/06/09 06:46:04;;;;;;;8.50;3.40;;;;;;;19.07;100.00;100694.66;4865911;29;20026;-88
2022/06/09 06:48:32;;;;;;;13.02;3.75;;;;;;;19.14;100.00;100695.31;4850373;29;20037;-89
2022/06/09 06:50:58;;;;;;;7.03;3.40;;;;;;;19.47;100.00;100720.69;4850756;29;20043;-88
2022/06/09 06:53:26;;;;;;;9.30;3.65;;;;;;;19.37;100.00;100688.69;4837583;29;20030;-87
2022/06/09 07:30:27;;;;;;;8.13;2.20;;;;;;;19.86;99.37;100802.38;4810138;29;20045;-88
2022/06/09 07:32:52;;;;;;;5.80;2.20;;;;;;;19.55;97.53;100750.22;4795986;29;20047;-89
2022/06/09 07:35:21;;;;;;;4.40;1.92;;;;;;;19.50;97.96;100728.34;4811685;29;20034;-89
2022/06/09 07:40:22;;;;;;;4.50;1.75;;;;;;;19.84;97.59;100782.72;5368703;24;20262;-87
2022/06/09 07:42:50;;;;;;;4.70;2.00;;;;;;;19.87;97.80;100787.66;4868094;29;20023;-87
2022/06/09 09:18:05;;;;;;;5.95;2.90;;;;;;;22.16;89.30;100901.88;5881398;24;20949;31
2022/06/09 10:30:25;;;;;;;7.03;3.85;;;;;;;19.80;95.42;100814.34;5293316;24;20058;-88
2022/06/09 10:38:25;;;;;;;5.60;3.50;;;;;;;19.39;96.46;100816.66;5526933;23;20053;-88
2022/06/09 10:40:55;;;;;;;7.57;3.78;;;;;;;19.98;97.09;100897.78;4851049;29;20103;-88
2022/06/09 10:43:40;;;;;;;6.72;3.72;;;;;;;20.38;98.26;100944.59;4850932;29;20029;-89
2022/06/09 10:46:14;;;;;;;7.28;3.60;;;;;;;19.97;96.37;100850.53;4849511;29;20014;-88
2022/06/09 10:56:26;;;;;;;6.63;3.83;;;;;;;19.83;96.22;100871.16;4846768;29;20038;-89
2022/06/09 10:59:16;;;;;;;10.45;4.32;;;;;;;20.47;95.20;100958.59;4863213;29;20019;-89
2022/06/09 11:01:41;;;;;;;9.32;3.58;;;;;;;19.74;94.76;100850.88;4831838;29;20030;-89
2022/06/09 11:04:14;;;;;;;8.60;4.15;;;;;;;19.63;94.04;100836.25;4831825;29;20090;-90
2022/06/09 11:06:46;;;;;;;7.20;3.97;;;;;;;20.37;94.79;100966.72;4862806;29;20014;-89
2022/06/09 11:09:36;;;;;;;11.93;4.22;;;;;;;20.37;96.00;100964.81;4848833;29;20046;-90
2022/06/09 11:12:23;;;;;;;9.63;4.43;;;;;;;20.45;97.71;100963.50;4829610;29;20023;-89
2022/06/09 11:15:13;;;;;;;8.02;4.10;;;;;;;20.64;97.29;100964.78;4862674;29;20046;-88
2022/06/09 11:18:37;;;;;;;7.40;3.70;;;;;;;20.57;95.65;100867.66;4832807;29;20059;-89
2022/06/09 12:25:42;;;;;;;6.72;4.10;;;;;;;20.42;100.00;100978.50;4948317;24;20057;-88
2022/06/09 12:31:10;;;;;;;9.13;4.40;;;;;;;19.74;100.00;100870.00;4891292;24;20058;-88
2022/06/09 12:33:38;;;;;;;8.55;4.20;;;;;;;19.68;100.00;100842.63;4848592;29;20038;-88
2022/06/09 12:36:12;;;;;;;6.85;4.32;;;;;;;19.74;100.00;100848.16;4865170;29;20022;-88
2022/06/09 12:38:51;;;;;;;;;;;;;;;20.49;100.00;100975.53;4886570;29;20017;-88
2022/06/09 12:41:31;;;;;;;7.55;4.72;;;;;;;19.65;100.00;100855.97;4886719;29;19944;-90
2022/06/09 12:44:05;;;;;;;6.32;4.53;;;;;;;19.82;100.00;100864.06;4887105;29;20040;-89
2022/06/09 12:46:32;;;;;;;6.90;4.70;;;;;;;20.57;100.00;100977.84;4872633;29;20041;-90
2022/06/09 12:54:34;;;;;;;10.13;4.70;;;;;;;19.39;100.00;100858.41;5022678;24;20492;-89
2022/06/09 12:57:19;;;;;;;6.38;4.50;;;;;;;19.46;100.00;100853.56;4870627;29;20044;-89
2022/06/09 12:59:44;;;;;;;8.05;4.40;;;;;;;19.67;100.00;100867.47;4887364;29;20073;-90
2022/06/09 13:02:10;;;;;;;10.02;4.55;;;;;;;20.42;100.00;100983.97;4887385;29;20024;-89
2022/06/09 13:04:48;;;;;;;12.32;4.90;;;;;;;19.57;100.00;100872.78;4887580;29;20014;-89
2022/06/09 13:07:28;;;;;;;8.68;4.50;;;;;;;19.83;100.00;100928.50;4856599;29;20045;-87
2022/06/09 13:10:08;;;;;;;9.95;4.82;;;;;;;19.76;100.00;100933.34;4851470;29;20014;-89
2022/06/09 13:12:51;;;;;;;5.07;4.35;;;;;;;19.80;100.00;100931.75;4851605;29;20037;-90
2022/06/09 13:15:23;;;;;;;6.18;4.75;;;;;;;19.58;100.00;100909.94;4868118;29;20068;-90
2022/06/09 13:17:49;;;;;;;13.40;7.80;;;;;;;19.59;100.00;100912.38;4852018;29;20057;-89
2022/06/09 13:20:19;;;;;;;9.98;7.55;;;;;;;19.34;100.00;100882.09;4852268;29;20037;-89
2022/06/09 13:22:48;;;;;;;9.30;7.75;;;;;;;19.27;100.00;100862.34;4868615;29;20026;-88
2022/06/09 13:25:19;;;;;;;10.73;7.25;;;;;;;19.61;100.00;100915.69;4852651;29;20014;-88
2022/06/09 13:27:45;;;;;;;8.52;6.90;;;;;;;19.49;100.00;100882.25;4867831;29;20067;-89
2022/06/09 13:30:50;;;;;;;10.23;4.72;;;;;;;19.62;100.00;100881.84;4868485;29;20457;-88
2022/06/09 13:33:35;;;;;;;9.95;6.28;;;;;;;19.56;100.00;100865.69;4761784;30;20020;-90
2022/06/09 13:36:13;;;;;;;9.32;6.88;;;;;;;19.70;100.00;100875.97;4864059;29;20106;-90
2022/06/09 13:38:39;;;;;;;11.13;6.95;;;;;;;19.70;100.00;100881.44;4868058;29;20040;-89
2022/06/09 13:41:36;;;;;;;10.93;6.60;;;;;;;19.68;100.00;100855.47;4867468;29;20018;-89
2022/06/09 13:44:13;;;;;;;12.02;5.90;;;;;;;19.75;100.00;100860.72;4854389;29;20029;-89
2022/06/09 13:47:09;;;;;;;7.38;5.22;;;;;;;19.94;100.00;100886.56;4870260;29;20062;-90
2022/06/09 13:49:58;;;;;;;12.05;7.10;;;;;;;19.85;100.00;100888.13;4870074;29;20014;-89
2022/06/09 13:52:46;;;;;;;9.40;7.05;;;;;;;20.71;100.00;101011.03;4949833;24;20077;31
2022/06/09 13:55:27;;;;;;;12.07;7.32;;;;;;;19.96;100.00;100908.97;4777909;30;20044;-90
2022/06/09 13:57:55;;;;;;;10.35;6.85;;;;;;;19.67;100.00;100883.84;4794997;30;20036;-89
2022/06/09 14:00:24;;;;;;;6.78;6.00;;;;;;;19.79;100.00;100909.06;4795137;30;20028;-90
2022/06/09 14:03:06;;;;;;;8.35;7.22;;;;;;;20.41;100.00;101003.38;4794832;30;20107;-89
2022/06/09 14:05:37;;;;;;;10.80;6.82;;;;;;;19.41;100.00;100869.91;4795724;30;20079;-90
2022/06/09 14:10:38;;;;;;;9.10;6.75;;;;;;;19.66;100.00;100929.41;5311576;23;20042;-78
2022/06/09 14:13:06;;;;;;;12.70;6.90;;;;;;;19.66;100.00;100914.94;5483074;24;20045;-79
2022/06/09 14:15:34;;;;;;;8.02;6.13;;;;;;;19.45;100.00;100895.59;4887803;29;20025;-77
2022/06/09 14:23:11;;;;;;;9.60;5.68;;;;;;;19.29;100.00;100882.03;4847902;29;20075;-90
2022/06/09 14:25:36;;;;;;;8.10;5.35;;;;;;;19.46;100.00;100907.31;4833936;29;20027;-91
2022/06/09 14:30:37;;;;;;;6.63;4.93;;;;;;;19.27;100.00;100895.94;5358360;23;20037;-89
2022/06/09 14:33:10;;;;;;;7.35;5.07;;;;;;;19.10;100.00;100876.88;4885411;29;20097;-89
2022/06/09 14:35:35;;;;;;;8.23;5.53;;;;;;;19.39;100.00;100925.81;4881666;29;20018;-90
2022/06/09 14:38:01;;;;;;;7.10;5.38;;;;;;;19.14;100.00;100891.69;4867113;29;20090;-90
2022/06/09 14:40:31;;;;;;;10.23;5.40;;;;;;;19.32;100.00;100930.63;4866750;29;20452;-89
2022/06/09 14:42:58;;;;;;;7.55;4.57;;;;;;;19.14;100.00;100918.97;4867140;29;20014;-89
2022/06/09 14:45:24;;;;;;;8.15;5.18;;;;;;;19.34;100.00;100953.06;4854548;29;20032;-86
2022/06/09 14:47:50;;;;;;;7.95;4.80;;;;;;;18.88;100.00;100887.00;4883835;29;20037;-85
2022/06/09 14:50:21;;;;;;;7.65;4.97;;;;;;;19.71;100.00;101014.13;4885122;29;20022;-88
2022/06/09 14:52:46;;;;;;;8.23;4.88;;;;;;;18.93;100.00;100889.78;4880964;29;20030;-81
2022/06/09 14:55:13;;;;;;;6.18;4.38;;;;;;;18.81;100.00;100870.81;4878420;29;20069;-87
2022/06/09 15:05:25;;;;;;;10.40;4.80;;;;;;;19.04;100.00;100927.03;5382901;23;20045;-89
2022/06/09 15:07:51;;;;;;;6.95;4.47;;;;;;;19.25;100.00;100956.19;4968037;24;20104;-86
2022/06/09 15:12:52;;;;;;;8.20;4.55;;;;;;;18.90;100.00;100914.81;5111854;24;20065;-89
2022/06/09 15:15:18;;;;;;;5.72;4.28;;;;;;;19.46;100.00;101011.03;4845291;29;20105;-85
2022/06/09 15:20:31;;;;;;;9.43;4.38;;;;;;;18.81;100.00;100924.50;5045673;24;20049;-87
2022/06/09 15:22:56;;;;;;;8.43;4.57;;;;;;;18.46;100.00;100877.38;4848172;29;20090;-86
2022/06/09 15:25:23;;;;;;;5.55;4.45;;;;;;;19.29;100.00;101013.81;4857730;29;20029;-88
2022/06/09 15:27:49;;;;;;;8.63;4.68;;;;;;;18.59;100.00;100914.34;4867065;29;20017;-86
2022/06/09 15:30:22;;;;;;;6.25;4.40;;;;;;;18.52;100.00;100900.91;4874835;29;20047;-86
2022/06/09 15:32:47;;;;;;;8.35;4.95;;;;;;;18.48;100.00;100907.09;4865659;29;20058;-87
2022/06/09 15:35:13;;;;;;;7.00;4.82;;;;;;;18.21;100.00;100890.59;4865645;29;20014;-87
2022/06/09 15:37:40;;;;;;;6.68;4.53;;;;;;;18.44;100.00;100934.03;4866364;29;20024;-87
2022/06/09 15:40:07;;;;;;;7.45;4.80;;;;;;;18.87;100.00;101030.66;4866341;29;20022;-87
2022/06/09 15:42:33;;;;;;;6.68;4.40;;;;;;;18.91;100.00;101023.66;5070392;23;20038;-86
2022/06/09 15:44:59;;;;;;;7.15;4.00;;;;;;;18.29;100.00;100922.88;4862348;29;20015;-88
2022/06/09 15:47:25;;;;;;;6.28;4.13;;;;;;;18.60;100.00;100962.31;4844819;29;20025;-87
2022/06/09 15:49:50;;;;;;;9.65;4.78;;;;;;;18.45;100.00;100923.94;4856908;29;20035;-84
2022/06/09 15:52:16;;;;;;;11.80;5.30;;;;;;;18.98;100.00;101021.56;4864519;29;20120;-87
2022/06/09 15:54:41;;;;;;;7.47;5.57;;;;;;;18.67;100.00;100964.88;4864724;29;20105;-87
2022/06/09 15:57:07;;;;;;;8.68;5.50;;;;;;;18.30;100.00;100900.81;4859403;29;20026;-87
2022/06/09 15:59:33;;;;;;;7.93;5.57;;;;;;;18.34;100.00;100919.38;4864955;29;20038;-88
2022/06/09 16:02:11;;;;;;;6.10;5.50;;;;;;;18.59;100.00;100966.13;4850146;29;20029;-87
2022/06/09 16:04:44;;;;;;;8.73;6.13;;;;;;;18.52;100.00;100960.03;5186020;24;20045;-90
2022/06/09 16:07:12;;;;;;;10.60;6.22;;;;;;;18.22;100.00;100920.31;4870431;29;20056;-87
2022/06/09 16:09:38;;;;;;;8.00;6.30;;;;;;;18.17;100.00;100916.66;4868922;29;20029;-87
2022/06/09 16:12:04;;;;;;;10.52;6.18;;;;;;;18.44;100.00;100954.97;4882251;29;20030;-87
2022/06/09 16:14:30;;;;;;;10.05;6.10;;;;;;;18.42;100.00;100951.69;4881049;29;20474;-87
2022/06/09 16:16:56;;;;;;;6.78;5.28;;;;;;;18.98;100.00;101031.66;4879640;29;20038;-87
2022/06/09 16:19:21;;;;;;;9.23;5.50;;;;;;;18.51;100.00;100950.22;4883716;29;20010;-85
2022/06/09 16:21:47;;;;;;;12.10;5.88;;;;;;;18.69;100.00;100990.00;4876604;29;20034;-87
2022/06/09 16:24:13;;;;;;;10.93;5.63;;;;;;;18.50;100.00;100937.63;4879504;29;20093;-87
2022/06/09 16:26:39;;;;;;;7.68;5.38;;;;;;;18.48;100.00;100946.06;4871688;29;20034;-86
2022/06/09 16:29:04;;;;;;;8.90;5.10;;;;;;;18.50;100.00;100959.44;4878262;29;20029;-85
2022/06/09 16:31:30;;;;;;;9.13;5.40;;;;;;;18.06;100.00;100905.59;4867787;29;20062;-87
2022/06/09 16:33:56;;;;;;;5.80;5.20;;;;;;;18.07;100.00;100912.69;4875729;29;20069;-87
2022/06/09 16:36:22;;;;;;;8.35;5.40;;;;;;;18.06;100.00;100905.59;4881112;29;20030;-87
2022/06/09 16:38:48;;;;;;;8.70;5.88;;;;;;;18.44;100.00;100972.16;4883529;29;20025;-87
2022/06/09 16:41:14;;;;;;;8.25;5.60;;;;;;;18.17;100.00;100928.38;4875565;29;20061;-86
2022/06/09 16:43:41;;;;;;;7.95;6.35;;;;;;;18.95;100.00;101053.97;4884200;29;20022;-87
2022/06/09 16:46:07;;;;;;;8.77;6.57;;;;;;;17.97;100.00;100912.53;4878294;29;20034;-87
2022/06/09 16:48:34;;;;;;;15.13;7.82;;;;;;;17.81;100.00;100937.81;4871564;29;20029;-88
2022/06/09 16:51:00;;;;;;;11.52;8.18;;;;;;;17.77;100.00;100950.25;4876127;29;20045;-87
2022/06/09 16:53:26;;;;;;;12.90;8.60;;;;;;;17.50;100.00;100929.03;4870987;29;20038;-84